Terminal Aerodrome Forecast
Issued by NWS Tuscon, AZ

Home | Current Version | Previous Version | Text Only | Print | Product List | Glossary On
Versions: 1 2 3 4 5 6 7 8 9 10 11 12 13 14 15 16 17
000
FTUS45 KTWC 040900 AAA
TAFTUS
TAF AMD
KTUS 040915Z 0409/0506 26007KT P6SM SCT050 BKN080
     FM041900 31009G18KT P6SM FEW050 SCT080
     FM050200 20005KT P6SM FEW080
     FM050500 14007KT P6SM SKC=

USA.gov is the U.S. government's official web portal to all federal, state and local government web resources and services.